Time;durP1;ratioP1;P1;durP2;ratioP2;P2;SDS_P1;SDS_P2;PMS_P1;PMS_P2;Temp;Humidity;BMP_temperature;BMP_pressure;BME280_temperature;BME280_humidity;BME280_pressure;Samples;Min_cycle;Max_cycle;Signal;HPM_P1;HPM_P2
2022/01/20 00:00:33;;;;;;;9.33;5.73;;;;;;;;;;5073530;28;20455;-70
2022/01/20 00:03:03;;;;;;;8.43;6.13;;;;;;;;;;5073390;28;20448;-69
2022/01/20 00:05:39;;;;;;;13.30;7.27;;;;;;;;;;5072817;28;20518;-70
2022/01/20 00:08:14;;;;;;;9.83;4.37;;;;;;;;;;5073013;28;20455;-70
2022/01/20 00:27:15;;;;;;;11.53;6.10;;;;;;;;;;5072820;28;20497;-69
2022/01/20 00:32:47;;;;;;;9.10;5.27;;;;;;;;;;5047898;28;20440;-70
2022/01/20 00:35:21;;;;;;;6.70;4.53;;;;;;;;;;5072619;28;20562;-70
2022/01/20 00:37:49;;;;;;;9.50;5.90;;;;;;;;;;5072409;28;20491;-69
2022/01/20 00:40:16;;;;;;;8.53;4.27;;;;;;;;;;5072887;28;20490;-69
2022/01/20 00:42:43;;;;;;;8.07;5.43;;;;;;;;;;5072550;28;20456;-70
2022/01/20 00:45:12;;;;;;;6.47;4.47;;;;;;;;;;5072608;28;20476;-69
2022/01/20 00:47:40;;;;;;;6.97;4.07;;;;;;;;;;5072472;28;20447;-71
2022/01/20 00:50:08;;;;;;;8.60;4.27;;;;;;;;;;5072683;28;20456;-69
2022/01/20 00:52:35;;;;;;;8.13;4.93;;;;;;;;;;5072493;28;20462;-69
2022/01/20 00:55:02;;;;;;;9.00;4.67;;;;;;;;;;5072313;28;20820;-69
2022/01/20 00:57:29;;;;;;;8.80;5.20;;;;;;;;;;5072402;28;20833;-70
2022/01/20 00:59:56;;;;;;;5.50;4.00;;;;;;;;;;5072629;28;20452;-69
2022/01/20 01:02:25;;;;;;;6.53;4.73;;;;;;;;;;5072480;28;20475;-69
2022/01/20 01:04:52;;;;;;;5.87;4.70;;;;;;;;;;5072166;28;20815;-69
2022/01/20 01:07:43;;;;;;;8.97;4.00;;;;;;;;;;5072435;28;20459;-70
2022/01/20 01:10:11;;;;;;;7.90;4.13;;;;;;;;;;5072581;28;20452;-69
2022/01/20 01:12:45;;;;;;;6.67;3.93;;;;;;;;;;5072327;28;20459;-69
2022/01/20 01:15:18;;;;;;;3.47;2.20;;;;;;;;;;5072231;28;20537;-69
2022/01/20 01:20:45;;;;;;;6.07;4.27;;;;;;;;;;5072292;28;20443;-70
2022/01/20 01:23:12;;;;;;;6.70;4.20;;;;;;;;;;5072416;28;20491;-69
2022/01/20 01:25:39;;;;;;;6.70;4.37;;;;;;;;;;5072032;28;20479;-69
2022/01/20 01:28:08;;;;;;;5.17;3.20;;;;;;;;;;5072453;28;20448;-69
2022/01/20 01:33:18;;;;;;;6.27;3.73;;;;;;;;;;5072164;28;20432;-69
2022/01/20 01:35:54;;;;;;;7.90;3.83;;;;;;;;;;5071773;28;20537;-69
2022/01/20 01:38:35;;;;;;;6.37;4.30;;;;;;;;;;5074346;28;20513;-69
2022/01/20 01:41:03;;;;;;;6.20;3.27;;;;;;;;;;5075989;28;20459;-70
2022/01/20 01:43:31;;;;;;;5.73;3.47;;;;;;;;;;5075660;28;20458;-69
2022/01/20 01:46:00;;;;;;;5.17;3.60;;;;;;;;;;5075660;28;20506;-70
2022/01/20 01:48:29;;;;;;;6.13;3.60;;;;;;;;;;5075586;28;20444;-70
2022/01/20 01:50:56;;;;;;;7.10;3.93;;;;;;;;;;5075845;28;20794;-69
2022/01/20 01:53:24;;;;;;;4.97;3.10;;;;;;;;;;5075789;28;20460;-70
2022/01/20 01:55:51;;;;;;;6.50;4.43;;;;;;;;;;5075184;28;20480;-69
2022/01/20 01:58:18;;;;;;;5.17;3.33;;;;;;;;;;5075365;28;20495;-69
2022/01/20 02:00:45;;;;;;;6.73;3.50;;;;;;;;;;5075365;28;20459;-70
2022/01/20 02:03:14;;;;;;;5.10;3.67;;;;;;;;;;5075381;28;20817;-69
2022/01/20 02:05:57;;;;;;;3.80;3.13;;;;;;;;;;5075117;28;20475;-69
2022/01/20 02:08:34;;;;;;;6.07;4.17;;;;;;;;;;5075392;28;20523;-68
2022/01/20 02:19:16;;;;;;;4.80;2.93;;;;;;;;;;5075091;28;20496;-70
2022/01/20 02:21:49;;;;;;;3.43;2.73;;;;;;;;;;5074657;28;20440;-70
2022/01/20 02:24:17;;;;;;;6.63;3.40;;;;;;;;;;5074858;28;20459;-70
2022/01/20 02:26:44;;;;;;;7.13;2.80;;;;;;;;;;5074612;28;20472;-70
2022/01/20 02:29:11;;;;;;;3.90;2.40;;;;;;;;;;5074814;28;20467;-69
2022/01/20 02:31:39;;;;;;;5.67;2.67;;;;;;;;;;5075039;28;20470;-69
2022/01/20 02:34:10;;;;;;;4.83;3.60;;;;;;;;;;5074673;28;20466;-69
2022/01/20 02:36:38;;;;;;;5.60;3.53;;;;;;;;;;5074576;28;20468;-69
2022/01/20 02:39:21;;;;;;;4.20;3.60;;;;;;;;;;5074753;28;21016;-70
2022/01/20 02:44:53;;;;;;;6.60;3.70;;;;;;;;;;5074295;28;20419;-71
2022/01/20 02:47:21;;;;;;;4.70;3.47;;;;;;;;;;5074518;28;20862;-70
2022/01/20 02:49:48;;;;;;;4.07;2.90;;;;;;;;;;5073112;28;20459;-69
2022/01/20 02:52:15;;;;;;;7.30;3.80;;;;;;;;;;5074532;28;20862;-69
2022/01/20 02:54:44;;;;;;;4.83;3.43;;;;;;;;;;5074063;28;20448;-69
2022/01/20 02:57:12;;;;;;;3.90;2.77;;;;;;;;;;5074132;28;21090;-70
2022/01/20 02:59:40;;;;;;;8.70;4.47;;;;;;;;;;5074244;28;20447;-69
2022/01/20 03:02:09;;;;;;;4.70;3.30;;;;;;;;;;5074240;28;20929;-70
2022/01/20 03:04:37;;;;;;;5.87;3.30;;;;;;;;;;5074065;28;20452;-69
2022/01/20 03:07:04;;;;;;;4.60;2.80;;;;;;;;;;5073967;28;20476;-69
2022/01/20 03:09:32;;;;;;;5.13;2.80;;;;;;;;;;5073794;28;20444;-69
2022/01/20 03:12:01;;;;;;;3.97;2.80;;;;;;;;;;5074143;28;20447;-69
2022/01/20 03:14:28;;;;;;;5.00;2.70;;;;;;;;;;5073833;28;20467;-69
2022/01/20 03:16:56;;;;;;;6.00;3.30;;;;;;;;;;5073690;28;20472;-69
2022/01/20 03:19:23;;;;;;;4.47;2.67;;;;;;;;;;5073799;28;20491;-69
2022/01/20 03:21:50;;;;;;;4.27;2.43;;;;;;;;;;5073319;28;20444;-69
2022/01/20 03:24:18;;;;;;;4.70;2.63;;;;;;;;;;5073623;28;20994;-69
2022/01/20 03:26:45;;;;;;;5.37;3.43;;;;;;;;;;5073653;28;20864;-70
2022/01/20 03:29:13;;;;;;;5.30;3.40;;;;;;;;;;5073511;28;20463;-70
2022/01/20 03:31:40;;;;;;;3.63;2.70;;;;;;;;;;5073554;28;20451;-70
2022/01/20 03:34:07;;;;;;;5.60;3.47;;;;;;;;;;5073453;28;20454;-69
2022/01/20 03:36:35;;;;;;;5.57;3.30;;;;;;;;;;5073404;28;20481;-70
2022/01/20 03:39:02;;;;;;;5.13;3.10;;;;;;;;;;5073745;28;20847;-69
2022/01/20 03:41:29;;;;;;;6.20;3.07;;;;;;;;;;5073312;28;20452;-69
2022/01/20 03:43:56;;;;;;;4.13;3.03;;;;;;;;;;5073370;28;20451;-70
2022/01/20 03:46:25;;;;;;;4.53;2.50;;;;;;;;;;5073509;28;20478;-69
2022/01/20 03:48:54;;;;;;;6.63;3.23;;;;;;;;;;5073234;28;20447;-70
2022/01/20 03:51:23;;;;;;;5.10;2.90;;;;;;;;;;5073419;28;20451;-69
2022/01/20 03:53:51;;;;;;;4.53;2.40;;;;;;;;;;5072987;28;20901;-69
2022/01/20 03:56:18;;;;;;;4.73;2.80;;;;;;;;;;5073288;28;20529;-70
2022/01/20 03:58:46;;;;;;;6.57;3.70;;;;;;;;;;5073191;28;20491;-69
2022/01/20 04:01:14;;;;;;;5.33;3.53;;;;;;;;;;5073133;28;20463;-69
2022/01/20 04:03:43;;;;;;;4.63;2.83;;;;;;;;;;5072868;28;20452;-70
2022/01/20 04:06:10;;;;;;;5.13;3.10;;;;;;;;;;5073207;28;20977;-69
2022/01/20 04:08:38;;;;;;;5.37;2.70;;;;;;;;;;5072991;28;20459;-70
2022/01/20 04:11:06;;;;;;;5.50;3.07;;;;;;;;;;5073073;28;20459;-70
2022/01/20 04:13:34;;;;;;;4.30;2.70;;;;;;;;;;5072780;28;20451;-70
2022/01/20 04:16:03;;;;;;;3.30;2.33;;;;;;;;;;5072802;28;20471;-70
2022/01/20 04:18:30;;;;;;;4.40;2.90;;;;;;;;;;5072878;28;21092;-69
2022/01/20 04:20:58;;;;;;;8.47;3.80;;;;;;;;;;5072555;28;20447;-69
2022/01/20 04:23:26;;;;;;;4.30;3.17;;;;;;;;;;5072949;28;20447;-70
2022/01/20 04:25:53;;;;;;;3.90;2.60;;;;;;;;;;5072858;28;20554;-69
2022/01/20 04:28:20;;;;;;;5.77;3.37;;;;;;;;;;5072858;28;20956;-69
2022/01/20 04:30:47;;;;;;;4.20;2.60;;;;;;;;;;5072722;28;20479;-69
2022/01/20 04:33:14;;;;;;;7.30;3.40;;;;;;;;;;5072938;28;20456;-69
2022/01/20 04:35:41;;;;;;;3.97;2.67;;;;;;;;;;5072479;28;20476;-70
2022/01/20 04:38:10;;;;;;;5.67;2.70;;;;;;;;;;5072730;28;20483;-70
2022/01/20 04:40:41;;;;;;;7.80;4.60;;;;;;;;;;5072859;28;20452;-69
2022/01/20 04:43:08;;;;;;;3.93;3.20;;;;;;;;;;5072654;28;20455;-70
2022/01/20 04:45:40;;;;;;;5.50;3.43;;;;;;;;;;5072353;28;20467;-69
2022/01/20 04:48:29;;;;;;;4.67;3.40;;;;;;;;;;5072870;28;20448;-69
2022/01/20 04:59:11;;;;;;;9.10;5.00;;;;;;;;;;5072582;28;20490;-69
2022/01/20 05:01:44;;;;;;;4.37;3.77;;;;;;;;;;5072680;28;20456;-70
2022/01/20 05:04:11;;;;;;;8.80;4.80;;;;;;;;;;5072479;28;20452;-70
2022/01/20 05:06:41;;;;;;;7.40;3.93;;;;;;;;;;5072462;28;21017;-69
2022/01/20 05:09:10;;;;;;;8.70;4.90;;;;;;;;;;5072469;28;20451;-69
2022/01/20 05:11:42;;;;;;;6.67;5.20;;;;;;;;;;5072632;28;20822;-69
2022/01/20 05:14:09;;;;;;;6.67;4.43;;;;;;;;;;5076009;28;21089;-69
2022/01/20 05:16:37;;;;;;;6.97;4.60;;;;;;;;;;5076064;28;20475;-69
2022/01/20 05:19:04;;;;;;;6.30;4.20;;;;;;;;;;5076112;28;20488;-69
2022/01/20 05:21:31;;;;;;;9.80;4.20;;;;;;;;;;5075851;28;20455;-70
2022/01/20 05:23:58;;;;;;;8.33;5.00;;;;;;;;;;5076061;28;20799;-69
2022/01/20 05:26:27;;;;;;;7.07;4.67;;;;;;;;;;5076198;28;20467;-70
2022/01/20 05:28:54;;;;;;;8.33;5.23;;;;;;;;;;5075913;28;20490;-70
2022/01/20 05:31:21;;;;;;;5.93;4.50;;;;;;;;;;5076124;28;20460;-70
2022/01/20 05:33:48;;;;;;;7.83;4.67;;;;;;;;;;5075909;28;20455;-69
2022/01/20 05:36:15;;;;;;;7.60;4.27;;;;;;;;;;5075836;28;20470;-68
2022/01/20 05:38:42;;;;;;;9.20;5.33;;;;;;;;;;5075685;28;20822;-68
2022/01/20 05:41:10;;;;;;;6.50;4.13;;;;;;;;;;5076343;28;20452;-68
2022/01/20 05:43:38;;;;;;;7.07;4.13;;;;;;;;;;5075603;28;20451;-69
2022/01/20 05:46:05;;;;;;;7.27;4.03;;;;;;;;;;5075763;28;20471;-69
2022/01/20 05:48:35;;;;;;;7.33;4.07;;;;;;;;;;5075681;28;20448;-69
2022/01/20 05:51:02;;;;;;;7.23;3.90;;;;;;;;;;5075730;28;20455;-70
2022/01/20 05:53:29;;;;;;;5.93;3.77;;;;;;;;;;5075415;28;20948;-69
2022/01/20 05:55:56;;;;;;;7.53;4.20;;;;;;;;;;5075580;28;20471;-69
2022/01/20 05:58:24;;;;;;;13.13;4.10;;;;;;;;;;5075626;28;20491;-68
2022/01/20 06:00:52;;;;;;;7.90;4.50;;;;;;;;;;5075501;28;20949;-68
2022/01/20 06:03:37;;;;;;;6.87;4.47;;;;;;;;;;5075394;28;20455;-68
2022/01/20 06:06:05;;;;;;;8.73;4.73;;;;;;;;;;5075495;28;20472;-68
2022/01/20 06:08:32;;;;;;;5.00;3.60;;;;;;;;;;5075325;28;20450;-68
2022/01/20 06:10:59;;;;;;;7.43;5.40;;;;;;;;;;5075476;28;20941;-68
2022/01/20 06:13:26;;;;;;;6.60;4.83;;;;;;;;;;5075152;28;20504;-74
2022/01/20 06:15:55;;;;;;;8.03;5.10;;;;;;;;;;5075227;28;20479;-68
2022/01/20 06:18:22;;;;;;;8.70;4.90;;;;;;;;;;5075028;28;20483;-68
2022/01/20 06:20:49;;;;;;;10.80;4.43;;;;;;;;;;5074519;28;20455;-69
2022/01/20 06:23:17;;;;;;;6.83;4.40;;;;;;;;;;5074807;28;20448;-69
2022/01/20 06:25:44;;;;;;;9.60;5.40;;;;;;;;;;5074619;28;20475;-68
2022/01/20 06:28:11;;;;;;;8.67;5.07;;;;;;;;;;5075114;28;20940;-69
2022/01/20 06:30:40;;;;;;;7.10;4.53;;;;;;;;;;5074692;28;20459;-69
2022/01/20 06:33:08;;;;;;;8.03;5.23;;;;;;;;;;5075027;28;21001;-68
2022/01/20 06:35:36;;;;;;;8.93;4.40;;;;;;;;;;5074361;28;20471;-69
2022/01/20 06:38:03;;;;;;;5.50;4.10;;;;;;;;;;5074683;28;20455;-69
2022/01/20 06:40:31;;;;;;;7.37;5.17;;;;;;;;;;5074463;28;20464;-70
2022/01/20 06:42:58;;;;;;;6.20;4.50;;;;;;;;;;5074481;28;20483;-68
2022/01/20 06:45:26;;;;;;;7.63;4.13;;;;;;;;;;5074374;28;20467;-69
2022/01/20 06:47:53;;;;;;;7.40;4.43;;;;;;;;;;5074657;28;20817;-68
2022/01/20 06:50:22;;;;;;;4.10;3.70;;;;;;;;;;5074757;28;20443;-70
2022/01/20 06:52:49;;;;;;;12.90;4.90;;;;;;;;;;5074293;28;20448;-69
2022/01/20 06:55:16;;;;;;;7.80;3.80;;;;;;;;;;5073951;28;20484;-69
2022/01/20 06:57:44;;;;;;;7.03;4.20;;;;;;;;;;5074310;28;20448;-69
2022/01/20 07:00:12;;;;;;;2.47;2.20;;;;;;;;;;5074305;28;20486;-68
2022/01/20 07:02:39;;;;;;;6.93;4.63;;;;;;;;;;5074051;28;20458;-69
2022/01/20 07:05:07;;;;;;;8.10;5.20;;;;;;;;;;5073916;28;21058;-69
2022/01/20 07:07:36;;;;;;;8.00;4.53;;;;;;;;;;5073985;28;20451;-69
2022/01/20 07:10:03;;;;;;;7.60;5.30;;;;;;;;;;5074047;28;20448;-68
2022/01/20 07:12:30;;;;;;;5.90;4.60;;;;;;;;;;5074139;28;20949;-68
2022/01/20 07:14:57;;;;;;;5.23;4.27;;;;;;;;;;5073779;28;20451;-69
2022/01/20 07:17:24;;;;;;;9.30;5.67;;;;;;;;;;5074023;28;20444;-68
2022/01/20 07:19:51;;;;;;;6.20;4.73;;;;;;;;;;5073699;28;20880;-68
2022/01/20 07:22:19;;;;;;;4.00;3.27;;;;;;;;;;5073909;28;20967;-70
2022/01/20 07:24:47;;;;;;;4.00;3.20;;;;;;;;;;5073579;28;20964;-69
2022/01/20 07:27:15;;;;;;;8.87;6.20;;;;;;;;;;5073793;28;20448;-68
2022/01/20 07:29:42;;;;;;;7.47;5.13;;;;;;;;;;5073424;28;20460;-68
2022/01/20 07:32:09;;;;;;;8.30;5.63;;;;;;;;;;5073712;28;20447;-68
2022/01/20 07:34:37;;;;;;;8.50;5.50;;;;;;;;;;5073092;28;20463;-68
2022/01/20 07:37:05;;;;;;;8.10;4.70;;;;;;;;;;5072893;28;20487;-68
2022/01/20 07:39:32;;;;;;;9.80;5.67;;;;;;;;;;5073381;28;20490;-70
2022/01/20 07:42:01;;;;;;;10.57;6.10;;;;;;;;;;5073569;28;20448;-68
2022/01/20 07:44:28;;;;;;;6.70;5.47;;;;;;;;;;5073433;28;20462;-68
2022/01/20 07:46:55;;;;;;;8.07;5.70;;;;;;;;;;5073268;28;20463;-68
2022/01/20 07:49:22;;;;;;;6.83;4.47;;;;;;;;;;5073371;28;20444;-68
2022/01/20 07:51:49;;;;;;;8.93;4.83;;;;;;;;;;5073274;28;20456;-68
2022/01/20 07:54:16;;;;;;;8.93;5.73;;;;;;;;;;5073210;28;20459;-68
2022/01/20 07:56:43;;;;;;;7.37;4.50;;;;;;;;;;5073125;28;20973;-70
2022/01/20 07:59:12;;;;;;;12.40;6.10;;;;;;;;;;5073146;28;20484;-69
2022/01/20 08:01:39;;;;;;;13.50;5.07;;;;;;;;;;5070409;28;20456;-68
2022/01/20 08:04:06;;;;;;;7.67;5.77;;;;;;;;;;5071505;28;20498;-71
2022/01/20 08:06:33;;;;;;;6.20;4.83;;;;;;;;;;5071418;28;20475;-69
2022/01/20 08:09:00;;;;;;;10.20;5.43;;;;;;;;;;5071618;28;20443;-70
2022/01/20 08:11:27;;;;;;;9.10;6.30;;;;;;;;;;5071573;28;20451;-69
2022/01/20 08:13:55;;;;;;;9.50;5.70;;;;;;;;;;5071232;28;20455;-70
2022/01/20 08:16:24;;;;;;;11.47;6.33;;;;;;;;;;5071748;28;20487;-70
2022/01/20 08:18:53;;;;;;;8.37;6.00;;;;;;;;;;5071865;28;20447;-68
2022/01/20 08:21:20;;;;;;;8.87;5.63;;;;;;;;;;5071292;28;21005;-69
2022/01/20 08:23:47;;;;;;;9.47;5.83;;;;;;;;;;5070868;28;20513;-68
2022/01/20 08:26:14;;;;;;;7.90;6.10;;;;;;;;;;5071522;28;20980;-68
2022/01/20 08:28:42;;;;;;;7.67;6.37;;;;;;;;;;5071213;28;20467;-69
2022/01/20 08:31:09;;;;;;;6.83;5.23;;;;;;;;;;5071407;28;20459;-68
2022/01/20 08:33:38;;;;;;;9.17;6.17;;;;;;;;;;5071289;28;20920;-70
2022/01/20 08:36:05;;;;;;;9.63;6.50;;;;;;;;;;5072305;28;20478;-68
2022/01/20 08:38:32;;;;;;;9.30;6.77;;;;;;;;;;5072675;28;20452;-70
2022/01/20 08:40:59;;;;;;;5.83;4.67;;;;;;;;;;5071893;28;20483;-68
2022/01/20 08:43:26;;;;;;;7.70;5.10;;;;;;;;;;5072248;28;20476;-71
2022/01/20 08:45:54;;;;;;;7.87;4.80;;;;;;;;;;5072457;28;20476;-69
2022/01/20 08:48:21;;;;;;;9.90;5.00;;;;;;;;;;5076580;28;20648;-69
2022/01/20 08:50:49;;;;;;;7.93;5.30;;;;;;;;;;5076691;28;20817;-68
2022/01/20 08:53:17;;;;;;;11.20;6.67;;;;;;;;;;5076643;28;20456;-70
2022/01/20 08:55:44;;;;;;;8.40;5.27;;;;;;;;;;5075464;28;20493;-69
2022/01/20 08:58:11;;;;;;;9.50;6.50;;;;;;;;;;5076542;28;20830;-70
2022/01/20 09:00:38;;;;;;;9.53;5.40;;;;;;;;;;5076358;28;20483;-69
2022/01/20 09:03:05;;;;;;;9.87;6.30;;;;;;;;;;5076445;28;20462;-68
2022/01/20 09:05:32;;;;;;;7.80;4.97;;;;;;;;;;5075983;28;20471;-70
2022/01/20 09:08:01;;;;;;;4.80;3.80;;;;;;;;;;5076315;28;20454;-69
2022/01/20 09:10:36;;;;;;;6.90;6.00;;;;;;;;;;5076268;28;20448;-69
2022/01/20 09:15:50;;;;;;;6.20;4.10;;;;;;;;;;5076075;28;20442;-68
2022/01/20 09:18:18;;;;;;;6.90;4.70;;;;;;;;;;5076204;28;20444;-69
2022/01/20 09:20:45;;;;;;;5.73;5.03;;;;;;;;;;5075724;28;20552;-70
2022/01/20 09:23:14;;;;;;;9.03;5.50;;;;;;;;;;5076214;28;20447;-69
2022/01/20 09:25:42;;;;;;;7.67;4.80;;;;;;;;;;5075696;28;21015;-68
2022/01/20 09:28:10;;;;;;;8.20;4.53;;;;;;;;;;5076036;28;20459;-68
2022/01/20 09:30:40;;;;;;;5.37;4.87;;;;;;;;;;5075700;28;20462;-69
2022/01/20 09:33:13;;;;;;;8.43;5.50;;;;;;;;;;5076214;28;20888;-69
2022/01/20 09:35:41;;;;;;;7.07;4.77;;;;;;;;;;5075510;28;21027;-69
2022/01/20 09:38:09;;;;;;;7.40;4.87;;;;;;;;;;5075798;28;21020;-69
2022/01/20 09:40:38;;;;;;;8.70;5.93;;;;;;;;;;5075737;28;20487;-69
2022/01/20 09:43:06;;;;;;;6.03;4.37;;;;;;;;;;5075797;28;20538;-69
2022/01/20 09:45:33;;;;;;;11.63;6.30;;;;;;;;;;5075402;28;20472;-69
2022/01/20 09:48:02;;;;;;;8.40;4.83;;;;;;;;;;5075974;28;20800;-68
2022/01/20 09:50:29;;;;;;;5.30;4.33;;;;;;;;;;5075427;28;20459;-69
2022/01/20 09:52:59;;;;;;;7.20;5.20;;;;;;;;;;5075671;28;20463;-68
2022/01/20 09:55:27;;;;;;;9.83;4.97;;;;;;;;;;5075317;28;20568;-69
2022/01/20 09:57:56;;;;;;;7.90;5.30;;;;;;;;;;5074731;28;20458;-69
2022/01/20 10:00:23;;;;;;;6.27;4.80;;;;;;;;;;5075342;28;20498;-68
2022/01/20 10:02:56;;;;;;;6.73;4.30;;;;;;;;;;5075398;28;20440;-69
2022/01/20 10:05:31;;;;;;;10.77;5.23;;;;;;;;;;5075175;28;20471;-69
2022/01/20 10:08:01;;;;;;;8.73;5.60;;;;;;;;;;5075278;28;20448;-70
2022/01/20 10:10:37;;;;;;;7.13;3.83;;;;;;;;;;5075211;28;20456;-70
2022/01/20 10:13:06;;;;;;;10.57;6.80;;;;;;;;;;5075349;28;20821;-68
2022/01/20 10:15:34;;;;;;;5.97;4.10;;;;;;;;;;5074676;28;20491;-69
2022/01/20 10:18:07;;;;;;;7.67;5.43;;;;;;;;;;5075053;28;20448;-68
2022/01/20 10:20:35;;;;;;;10.27;6.27;;;;;;;;;;5074947;28;20483;-68
2022/01/20 10:23:02;;;;;;;10.73;5.90;;;;;;;;;;5074725;28;20458;-69
2022/01/20 10:25:34;;;;;;;7.63;5.30;;;;;;;;;;5074686;28;20830;-69
2022/01/20 10:28:01;;;;;;;10.20;6.30;;;;;;;;;;5074930;28;20937;-70
2022/01/20 10:30:30;;;;;;;9.50;6.10;;;;;;;;;;5074818;28;20463;-68
2022/01/20 10:32:58;;;;;;;6.70;4.90;;;;;;;;;;5074955;28;20444;-68
2022/01/20 10:35:27;;;;;;;6.97;5.20;;;;;;;;;;5074529;28;20476;-69
2022/01/20 10:37:59;;;;;;;6.13;5.53;;;;;;;;;;5074798;28;20471;-68
2022/01/20 10:40:27;;;;;;;9.77;6.37;;;;;;;;;;5074514;28;20483;-69
2022/01/20 10:42:54;;;;;;;7.00;5.10;;;;;;;;;;5074805;28;20464;-69
2022/01/20 10:45:23;;;;;;;6.63;5.40;;;;;;;;;;5074347;28;20852;-69
2022/01/20 10:47:52;;;;;;;5.80;4.70;;;;;;;;;;5074357;28;20456;-68
2022/01/20 10:50:22;;;;;;;7.03;5.10;;;;;;;;;;5074600;28;20451;-69
2022/01/20 10:52:50;;;;;;;6.20;3.80;;;;;;;;;;5074460;28;20784;-69
2022/01/20 10:55:23;;;;;;;5.60;3.83;;;;;;;;;;5074167;28;20888;-69
2022/01/20 10:57:52;;;;;;;5.63;3.83;;;;;;;;;;5074431;28;20456;-69
2022/01/20 11:00:20;;;;;;;6.37;4.60;;;;;;;;;;5074285;28;20491;-69
2022/01/20 11:02:50;;;;;;;3.80;3.40;;;;;;;;;;5074152;28;20459;-69
2022/01/20 11:05:18;;;;;;;3.97;3.07;;;;;;;;;;5073931;28;20503;-69
2022/01/20 11:07:46;;;;;;;3.80;3.33;;;;;;;;;;5073947;28;20987;-69
2022/01/20 11:10:13;;;;;;;4.63;2.83;;;;;;;;;;5073101;28;20444;-68
2022/01/20 11:12:41;;;;;;;3.00;2.70;;;;;;;;;;5074115;28;20447;-69
2022/01/20 11:15:10;;;;;;;3.17;2.57;;;;;;;;;;5073741;28;20478;-69
2022/01/20 11:17:40;;;;;;;4.70;3.30;;;;;;;;;;5073853;28;20448;-69
2022/01/20 11:20:08;;;;;;;2.83;2.40;;;;;;;;;;5073902;28;20988;-69
2022/01/20 11:22:37;;;;;;;6.27;5.30;;;;;;;;;;5073338;28;20945;-69
2022/01/20 11:25:05;;;;;;;9.60;5.80;;;;;;;;;;5073854;28;20455;-69
2022/01/20 11:27:37;;;;;;;13.77;6.63;;;;;;;;;;5073618;28;20961;-69
2022/01/20 11:30:13;;;;;;;5.03;3.57;;;;;;;;;;5073633;28;20534;-69
2022/01/20 11:33:04;;;;;;;5.43;3.73;;;;;;;;;;5172944;27;20520;-68
2022/01/20 11:35:38;;;;;;;4.33;3.23;;;;;;;;;;5172477;27;20470;-69
2022/01/20 11:38:05;;;;;;;9.50;4.80;;;;;;;;;;5172721;27;20445;-68
2022/01/20 11:40:33;;;;;;;5.40;3.57;;;;;;;;;;5172671;27;20449;-68
2022/01/20 11:43:03;;;;;;;6.70;3.63;;;;;;;;;;5172548;27;20450;-68
2022/01/20 11:45:32;;;;;;;4.03;3.57;;;;;;;;;;5172230;27;20471;-69
2022/01/20 11:48:00;;;;;;;6.20;3.70;;;;;;;;;;5172561;27;20446;-69
2022/01/20 11:50:28;;;;;;;9.30;3.80;;;;;;;;;;5172466;27;20454;-69
2022/01/20 11:52:55;;;;;;;7.73;3.07;;;;;;;;;;5172518;27;20447;-69
2022/01/20 11:55:22;;;;;;;4.60;3.40;;;;;;;;;;5172168;27;20467;-69
2022/01/20 11:57:50;;;;;;;4.50;2.70;;;;;;;;;;5172201;27;20472;-68
2022/01/20 12:00:20;;;;;;;6.13;3.60;;;;;;;;;;5172417;27;20955;-68
2022/01/20 12:02:47;;;;;;;5.40;3.07;;;;;;;;;;5172087;27;20439;-69
2022/01/20 12:05:19;;;;;;;4.33;3.00;;;;;;;;;;5171973;27;20462;-68
2022/01/20 12:07:47;;;;;;;5.97;3.03;;;;;;;;;;5172020;27;20481;-69
2022/01/20 12:10:16;;;;;;;3.03;2.20;;;;;;;;;;5172213;27;20442;-68
2022/01/20 12:12:44;;;;;;;4.53;3.07;;;;;;;;;;5171911;27;20478;-68
2022/01/20 12:15:12;;;;;;;5.43;3.10;;;;;;;;;;5171779;27;21001;-69
2022/01/20 12:17:41;;;;;;;4.70;2.97;;;;;;;;;;5172022;27;20449;-68
2022/01/20 12:20:09;;;;;;;5.40;2.70;;;;;;;;;;5172039;27;20574;-68
2022/01/20 12:22:40;;;;;;;4.77;2.40;;;;;;;;;;5171365;27;20454;-68
2022/01/20 12:25:09;;;;;;;4.77;3.10;;;;;;;;;;5171693;27;20500;-68
2022/01/20 12:27:36;;;;;;;2.80;2.20;;;;;;;;;;5171668;27;20453;-69
2022/01/20 12:30:03;;;;;;;4.33;1.97;;;;;;;;;;5171645;27;20458;-69
2022/01/20 12:32:30;;;;;;;5.10;3.50;;;;;;;;;;5171398;27;20575;-70
2022/01/20 12:34:58;;;;;;;2.93;2.50;;;;;;;;;;5171410;27;20451;-68
2022/01/20 12:37:33;;;;;;;3.50;2.43;;;;;;;;;;5171528;27;20447;-70
2022/01/20 12:40:00;;;;;;;2.60;2.30;;;;;;;;;;5171641;27;20446;-68
2022/01/20 12:42:33;;;;;;;4.50;3.50;;;;;;;;;;5167312;27;20447;-69
2022/01/20 12:45:05;;;;;;;4.33;2.53;;;;;;;;;;5157496;27;20447;-68
2022/01/20 12:47:32;;;;;;;7.27;3.87;;;;;;;;;;5157378;27;20447;-70
2022/01/20 12:50:00;;;;;;;8.13;4.57;;;;;;;;;;5157516;27;20455;-69
2022/01/20 12:52:27;;;;;;;3.53;2.63;;;;;;;;;;5157254;27;20480;-69
2022/01/20 12:54:55;;;;;;;4.73;2.90;;;;;;;;;;5156982;27;20452;-68
2022/01/20 12:57:22;;;;;;;2.80;1.90;;;;;;;;;;5163432;27;20454;-69
2022/01/20 12:59:54;;;;;;;4.50;2.50;;;;;;;;;;5177265;27;20446;-71
2022/01/20 13:02:24;;;;;;;9.40;3.93;;;;;;;;;;5176688;27;20998;-70
2022/01/20 13:04:56;;;;;;;5.00;2.97;;;;;;;;;;5176089;27;20454;-69
2022/01/20 13:07:23;;;;;;;2.10;1.60;;;;;;;;;;5164896;27;20818;-69
2022/01/20 13:09:59;;;;;;;2.37;1.70;;;;;;;;;;5155543;27;20447;-69
2022/01/20 13:12:33;;;;;;;5.70;2.17;;;;;;;;;;5155532;27;20581;-69
2022/01/20 13:15:02;;;;;;;3.00;2.10;;;;;;;;;;5155458;27;20971;-69
2022/01/20 13:17:30;;;;;;;3.43;2.40;;;;;;;;;;5155327;27;20458;-70
2022/01/20 13:19:59;;;;;;;18.23;8.07;;;;;;;;;;5155157;27;20966;-69
2022/01/20 13:22:29;;;;;;;24.50;9.03;;;;;;;;;;5155069;27;20447;-70
2022/01/20 13:25:05;;;;;;;17.97;7.17;;;;;;;;;;5155024;27;20956;-68
2022/01/20 13:27:32;;;;;;;11.57;5.80;;;;;;;;;;5155046;27;20447;-69
2022/01/20 13:29:59;;;;;;;3.67;2.57;;;;;;;;;;5155446;27;20546;-69
2022/01/20 13:32:28;;;;;;;25.23;13.20;;;;;;;;;;5155104;27;20487;-68
2022/01/20 13:34:56;;;;;;;8.90;4.60;;;;;;;;;;5154340;27;20466;-68
2022/01/20 13:37:24;;;;;;;5.30;4.37;;;;;;;;;;5154223;27;20458;-69
2022/01/20 13:39:55;;;;;;;9.63;5.77;;;;;;;;;;5154437;27;20462;-68
2022/01/20 13:42:30;;;;;;;9.37;5.13;;;;;;;;;;5155377;27;20508;-69
2022/01/20 13:45:12;;;;;;;4.57;4.10;;;;;;;;;;5154769;27;20451;-68
2022/01/20 13:47:51;;;;;;;4.80;3.53;;;;;;;;;;5151439;27;20538;-69
2022/01/20 13:50:19;;;;;;;5.50;4.40;;;;;;;;;;5154325;27;20448;-69
2022/01/20 13:52:47;;;;;;;4.80;2.80;;;;;;;;;;5153661;27;20858;-70
2022/01/20 13:55:25;;;;;;;3.23;2.60;;;;;;;;;;5153424;27;20998;-68
2022/01/20 13:57:53;;;;;;;3.63;2.20;;;;;;;;;;5153506;27;20956;-69
2022/01/20 14:00:21;;;;;;;3.77;1.80;;;;;;;;;;5154502;27;20450;-72
2022/01/20 14:02:52;;;;;;;5.13;2.00;;;;;;;;;;5153913;27;20542;-69
2022/01/20 14:05:20;;;;;;;2.97;1.50;;;;;;;;;;5154368;27;20460;-69
2022/01/20 14:07:47;;;;;;;4.00;2.30;;;;;;;;;;5154052;27;20446;-69
2022/01/20 14:10:15;;;;;;;2.67;1.53;;;;;;;;;;5154181;27;20532;-69
2022/01/20 14:12:42;;;;;;;4.13;2.13;;;;;;;;;;5154009;27;20483;-69
2022/01/20 14:15:09;;;;;;;1.90;1.53;;;;;;;;;;5153969;27;20966;-70
2022/01/20 14:17:38;;;;;;;2.50;1.70;;;;;;;;;;5153765;27;20443;-69
2022/01/20 14:20:10;;;;;;;2.10;1.50;;;;;;;;;;5154155;27;21005;-69
2022/01/20 14:22:37;;;;;;;4.07;2.00;;;;;;;;;;5153314;27;20444;-69
2022/01/20 14:25:05;;;;;;;2.20;1.43;;;;;;;;;;5153805;27;20455;-70
2022/01/20 14:27:32;;;;;;;3.13;1.90;;;;;;;;;;5153729;27;20579;-70
2022/01/20 14:30:01;;;;;;;3.17;2.20;;;;;;;;;;5153907;27;20450;-69
2022/01/20 14:32:28;;;;;;;5.03;2.20;;;;;;;;;;5153619;27;20491;-70
2022/01/20 14:34:55;;;;;;;3.73;2.93;;;;;;;;;;5153772;27;20470;-69
2022/01/20 14:37:24;;;;;;;4.30;2.07;;;;;;;;;;5153484;27;20450;-70
2022/01/20 14:39:51;;;;;;;6.33;3.10;;;;;;;;;;5153032;27;20462;-70
2022/01/20 14:42:18;;;;;;;3.53;2.50;;;;;;;;;;5153314;27;20443;-70
2022/01/20 14:44:47;;;;;;;3.90;2.10;;;;;;;;;;5150047;27;20533;-70
2022/01/20 14:47:15;;;;;;;3.20;1.63;;;;;;;;;;5132226;27;20468;-69
2022/01/20 14:49:42;;;;;;;5.70;2.40;;;;;;;;;;5132237;27;20456;-69
2022/01/20 14:52:09;;;;;;;2.50;2.30;;;;;;;;;;5132405;27;20988;-69
2022/01/20 14:54:37;;;;;;;5.23;2.67;;;;;;;;;;5132292;27;20456;-69
2022/01/20 14:57:05;;;;;;;6.40;5.40;;;;;;;;;;5132512;27;20461;-70
2022/01/20 14:59:33;;;;;;;3.30;2.03;;;;;;;;;;5131965;27;20449;-69
2022/01/20 15:02:00;;;;;;;4.73;3.20;;;;;;;;;;5132764;27;20448;-68
2022/01/20 15:04:28;;;;;;;1.97;1.40;;;;;;;;;;5132595;27;20456;-69
2022/01/20 15:06:55;;;;;;;2.10;1.47;;;;;;;;;;5132300;27;20472;-69
2022/01/20 15:09:22;;;;;;;4.27;1.90;;;;;;;;;;5132806;27;20443;-69
2022/01/20 15:11:50;;;;;;;2.40;1.90;;;;;;;;;;5132593;27;20480;-68
2022/01/20 15:14:17;;;;;;;2.40;1.40;;;;;;;;;;5132389;27;20457;-68
2022/01/20 15:16:45;;;;;;;2.17;1.33;;;;;;;;;;5132663;27;20473;-71
2022/01/20 15:19:13;;;;;;;2.00;1.50;;;;;;;;;;5132799;27;20453;-71
2022/01/20 15:21:41;;;;;;;3.57;1.83;;;;;;;;;;5132058;27;20460;-69
2022/01/20 15:24:08;;;;;;;1.83;1.40;;;;;;;;;;5132441;27;21007;-69
2022/01/20 15:26:36;;;;;;;5.57;1.80;;;;;;;;;;5132213;27;20487;-71
2022/01/20 15:29:04;;;;;;;5.50;2.00;;;;;;;;;;5132386;27;20825;-68
2022/01/20 15:31:36;;;;;;;3.83;2.17;;;;;;;;;;5132241;28;20460;-69
2022/01/20 15:34:03;;;;;;;4.40;2.00;;;;;;;;;;5132320;27;20439;-68
2022/01/20 15:36:30;;;;;;;3.50;1.83;;;;;;;;;;5132564;28;20465;-68
2022/01/20 15:38:59;;;;;;;8.60;1.90;;;;;;;;;;5132613;28;20445;-69